Terminal Aerodrome Forecast
Issued by NWS Norman, OK

Current Version | Previous Version | Text Only | Print | Product List | Glossary On
Versions: 1 2 3 4 5 6 7 8 9 10 11 12
000
FTUS44 KOUN 261738
TAFSPS
TAF
KSPS 261738Z 2618/2718 32011KT P6SM SCT250
     FM262200 VRB04KT P6SM BKN250
     FM270600 18011KT P6SM BKN250
     FM271400 22012G22KT P6SM SCT100=

USA.gov is the U.S. government's official web portal to all federal, state and local government web resources and services.